Valkenburg, Nederland

1:42 AM CEST op 19 september 2014 (GMT +0200)
Coebel | Change Station
CLOSE
Current Station
Persoonlijk weerstation
Location: Leiden, ZUID HOLLAND
Geometrische hoogte: 30 ft
Nabije weerstations

Hoogte 30 ft 52.15 °N, 4.47 °E | Updated 2 minutes ago

Partly Cloudy
Gedeeltelijk bewolkt
63.1 °F
Voelt als 63.1 °F
N
0.0
Wind Variabel Wind van noord
Gusts 0.0 mijl/u

Vandaag
Hoog -- | Laag -- °F
--% Kans op neerslag
Gisteren
Hoog -- | Laag -- °F
Precip. -- inches
7:23 AM 7:48 PM
Afnemende halvemaan, 23% visible
Druk 29.83 inches
Zicht 3.7 mijlen
Wolken Gering 3700 ft
Dauwpunt 58 °F
Vochtigheid 85%
Neerslag 0.00 inches
Dikte sneeuw Niet beschikbaar.
UV 0 van de 12
Pollen Niet beschikbaar.
Luchtkwaliteit Niet beschikbaar.
Flu Activity Niet beschikbaar.
METAR EHRD 182325Z AUTO VRB02KT 6000 FEW037 16/15 Q1010 BECMG 1500 MIFG

More Conditions Fewer Conditions

Druk 29.83 inches
Zicht 3.7 mijlen
Wolken Gering 3700 ft
Dauwpunt 58 °F
Vochtigheid 85%
Neerslag 0.00 inches
Dikte sneeuw Niet beschikbaar.
UV 0 van de 12
Pollen Niet beschikbaar.
Luchtkwaliteit Niet beschikbaar.
Flu Activity Niet beschikbaar.
METAR EHRD 182325Z AUTO VRB02KT 6000 FEW037 16/15 Q1010 BECMG 1500 MIFG

More Conditions Fewer Conditions

10-Day Weather Forecast

Almanac

Astronomie

Sep. 19, 2014 Opkomst Ondergang
Werkelijke tijd 7:23 AM CEST 7:48 PM CEST
Burgerlijke schemering 6:49 AM CEST 8:22 PM CEST
Nautische schemering 6:08 AM CEST 9:02 PM CEST
Astronomische schemering 5:25 AM CEST 9:44 PM CEST
Maan 2:27 AM CEST (9/19) 5:30 PM CEST (9/19)
Golflengte van het zichtbare licht 13h 33m
Daglengte
12h 25m
Tomorrow will be 4m 0s shorter.
Afnemende halvemaan, 23% of the Moon is Illuminated
sep 18
Afnemende halvemaan
sep 24
Nieuw
oktober 1
Eerste kwartier
oktober 8
Volle maan
oktober 15
Laatste kwartier

Extremen gisteren

Country Highs Country Lows

Community

WunderPhotos

Upload Photos

1,754,489 foto’s ge-upload!

WunderBlogs® & News

By Dr. Jeff Masters
Director of Meteorology, Weather Underground
By Kari Strenfel
Meteorologist, Weather Underground
By Christopher C. Burt
Weather Historian, Weather Underground
September 18, 2014
September 18, 2014
September 18, 2014

Nearby

Luchtkwaliteit

Not available.

Dikte sneeuw

Not available.

Aardbevingen

Stad Distance Mag. Time & Date
No recent earthquake activity has been reported nearby.
Minimum magnitude displayed is 2.5.

Watertemperatuur langs de kust

Plaats Temperatuur
Geen meldingen van stations

Nabije weerstations